createdAt,value
2019-03-30T00:01:08.759Z,2.00
2019-03-30T00:03:40.913Z,1.80
2019-03-30T00:06:11.879Z,2.10
2019-03-30T00:08:42.860Z,2.30
2019-03-30T00:11:13.806Z,2.20
2019-03-30T00:13:44.840Z,2.20
2019-03-30T00:16:15.835Z,2.00
2019-03-30T00:18:47.356Z,1.70
2019-03-30T00:21:18.432Z,1.60
2019-03-30T00:23:49.575Z,1.60
2019-03-30T00:26:20.768Z,1.50
2019-03-30T00:28:52.786Z,1.50
2019-03-30T00:31:23.735Z,1.40
2019-03-30T00:33:54.787Z,1.40
2019-03-30T00:36:25.902Z,1.40
2019-03-30T00:38:57.027Z,1.30
2019-03-30T00:41:27.998Z,1.20
2019-03-30T00:43:58.942Z,1.10
2019-03-30T00:46:29.961Z,1.10
2019-03-30T00:49:00.978Z,1.20
2019-03-30T00:51:31.954Z,1.30
2019-03-30T00:54:02.895Z,1.30
2019-03-30T00:56:34.022Z,1.20
2019-03-30T00:59:04.973Z,1.20
2019-03-30T01:01:35.948Z,1.20
2019-03-30T01:04:06.988Z,1.10
2019-03-30T01:06:37.968Z,1.00
2019-03-30T01:09:09.719Z,1.10
2019-03-30T01:11:40.687Z,1.30
2019-03-30T01:14:11.729Z,1.40
2019-03-30T01:16:42.703Z,1.20
2019-03-30T01:19:13.650Z,0.90
2019-03-30T01:21:44.705Z,0.70
2019-03-30T01:24:15.693Z,0.60
2019-03-30T01:26:46.670Z,0.60
2019-03-30T01:29:17.651Z,0.60
2019-03-30T01:31:48.595Z,0.70
2019-03-30T01:34:19.619Z,0.60
2019-03-30T01:36:51.330Z,0.60
2019-03-30T01:39:22.373Z,0.60
2019-03-30T01:41:53.331Z,0.60
2019-03-30T01:44:24.301Z,0.60
2019-03-30T01:46:55.270Z,0.60
2019-03-30T01:49:26.239Z,0.60
2019-03-30T01:51:57.199Z,0.60
2019-03-30T01:54:28.183Z,0.60
2019-03-30T01:56:59.130Z,0.50
2019-03-30T01:59:30.112Z,0.60
2019-03-30T02:02:01.068Z,0.60
2019-03-30T02:04:32.042Z,0.50
2019-03-30T02:07:02.989Z,0.50
2019-03-30T02:09:33.973Z,0.60
2019-03-30T02:12:05.066Z,0.60
2019-03-30T02:14:36.064Z,0.50
2019-03-30T02:17:07.070Z,0.50
2019-03-30T02:19:38.026Z,0.50
2019-03-30T02:22:09.049Z,0.60
2019-03-30T02:24:40.087Z,0.50
2019-03-30T02:27:11.067Z,0.60
2019-03-30T02:29:42.029Z,0.60
2019-03-30T02:32:13.016Z,0.60
2019-03-30T02:34:43.986Z,0.60
2019-03-30T02:37:15.033Z,0.60
2019-03-30T02:39:46.061Z,0.60
2019-03-30T02:42:17.039Z,0.60
2019-03-30T02:44:47.997Z,0.60
2019-03-30T02:47:18.969Z,0.50
2019-03-30T02:49:49.935Z,0.50
2019-03-30T02:52:20.912Z,0.50
2019-03-30T02:54:51.957Z,0.50
2019-03-30T02:57:23.037Z,0.50
2019-03-30T02:59:55.024Z,0.50
2019-03-30T03:02:26.023Z,0.50
2019-03-30T03:04:57.024Z,0.40
2019-03-30T03:07:28.044Z,0.40
2019-03-30T03:09:59.033Z,0.40
2019-03-30T03:12:29.984Z,0.30
2019-03-30T03:15:00.963Z,0.30
2019-03-30T03:17:31.938Z,0.30
2019-03-30T03:20:02.989Z,0.30
2019-03-30T03:22:33.945Z,0.40
2019-03-30T03:25:06.653Z,0.50
2019-03-30T03:27:37.588Z,0.50
2019-03-30T03:30:09.038Z,0.50
2019-03-30T03:32:40.014Z,0.50
2019-03-30T03:35:11.157Z,0.50
2019-03-30T03:37:45.239Z,0.40
2019-03-30T03:40:14.888Z,0.40
2019-03-30T03:42:45.914Z,0.30
2019-03-30T03:45:16.979Z,0.20
2019-03-30T03:47:47.922Z,0.50
2019-03-30T03:50:41.639Z,0.50
2019-03-30T03:53:15.207Z,0.40
2019-03-30T03:55:47.089Z,0.20
2019-03-30T03:58:19.133Z,0.40
2019-03-30T04:00:52.103Z,0.60
2019-03-30T04:03:24.547Z,0.30
2019-03-30T04:05:58.794Z,0.30
2019-03-30T04:08:32.528Z,0.10
2019-03-30T04:11:04.266Z,0.00
2019-03-30T04:13:35.220Z,0.00
2019-03-30T04:16:06.533Z,-0.10
2019-03-30T04:18:37.549Z,-0.10
2019-03-30T04:21:08.583Z,0.00
2019-03-30T04:23:40.820Z,-0.10
2019-03-30T04:26:11.824Z,-0.10
2019-03-30T04:28:42.831Z,-0.20
2019-03-30T04:31:13.873Z,-0.20
2019-03-30T04:33:44.869Z,-0.30
2019-03-30T04:36:15.858Z,-0.30
2019-03-30T04:38:46.846Z,-0.20
2019-03-30T04:41:17.799Z,-0.20
2019-03-30T04:43:48.779Z,-0.20
2019-03-30T04:46:19.729Z,-0.20
2019-03-30T04:48:50.747Z,-0.30
2019-03-30T04:51:21.710Z,0.00
2019-03-30T04:53:52.702Z,0.00
2019-03-30T04:56:23.711Z,0.10
2019-03-30T04:58:54.709Z,0.30
2019-03-30T05:01:25.663Z,0.30
2019-03-30T05:03:56.647Z,0.30
2019-03-30T05:06:27.599Z,0.40
2019-03-30T05:08:58.573Z,0.50
2019-03-30T05:11:29.518Z,0.50
2019-03-30T05:14:00.493Z,0.50
2019-03-30T05:16:31.452Z,0.50
2019-03-30T05:19:02.425Z,0.40
2019-03-30T05:21:33.418Z,0.20
2019-03-30T05:24:04.370Z,0.30
2019-03-30T05:26:35.353Z,0.30
2019-03-30T05:29:08.304Z,0.10
2019-03-30T05:31:39.287Z,0.10
2019-03-30T05:34:10.236Z,0.20
2019-03-30T05:36:41.301Z,0.20
2019-03-30T05:39:13.314Z,0.50
2019-03-30T05:41:44.352Z,0.40
2019-03-30T05:44:16.333Z,0.40
2019-03-30T05:46:47.308Z,0.70
2019-03-30T05:49:18.255Z,1.00
2019-03-30T05:51:49.234Z,1.20
2019-03-30T05:54:20.193Z,1.60
2019-03-30T05:56:51.175Z,1.80
2019-03-30T05:59:22.117Z,1.90
2019-03-30T06:01:53.093Z,1.90
2019-03-30T06:04:24.042Z,1.90
2019-03-30T06:06:55.018Z,1.90
2019-03-30T06:09:26.066Z,2.00
2019-03-30T06:11:57.049Z,2.00
2019-03-30T06:14:27.997Z,2.20
2019-03-30T06:16:58.968Z,2.20
2019-03-30T06:19:29.910Z,2.10
2019-03-30T06:22:00.894Z,2.10
2019-03-30T06:24:32.837Z,2.30
2019-03-30T06:27:03.809Z,2.50
2019-03-30T06:29:34.761Z,2.80
2019-03-30T06:32:05.740Z,3.00
2019-03-30T06:34:36.678Z,3.20
2019-03-30T06:37:07.638Z,3.40
2019-03-30T06:39:38.629Z,3.50
2019-03-30T06:42:09.576Z,3.70
2019-03-30T06:44:40.615Z,3.70
2019-03-30T06:47:11.551Z,4.00
2019-03-30T06:49:42.528Z,4.20
2019-03-30T06:52:13.465Z,4.40
2019-03-30T06:54:44.428Z,4.70
2019-03-30T06:57:15.397Z,5.10
2019-03-30T06:59:46.367Z,5.20
2019-03-30T07:02:17.500Z,5.20
2019-03-30T07:04:48.965Z,5.20
2019-03-30T07:07:20.499Z,5.20
2019-03-30T07:09:53.631Z,5.50
2019-03-30T07:12:25.839Z,5.80
2019-03-30T07:14:59.814Z,6.00
2019-03-30T07:17:31.641Z,6.10
2019-03-30T07:20:04.510Z,6.10
2019-03-30T07:22:35.441Z,6.20
2019-03-30T07:25:07.418Z,6.40
2019-03-30T07:27:39.445Z,6.50
2019-03-30T07:30:10.604Z,6.70
2019-03-30T07:32:41.542Z,6.90
2019-03-30T07:35:12.533Z,7.10
2019-03-30T07:37:43.531Z,7.30
2019-03-30T07:40:14.690Z,7.50
2019-03-30T07:42:45.713Z,7.60
2019-03-30T07:45:16.780Z,7.70
2019-03-30T07:47:47.748Z,7.90
2019-03-30T07:50:18.812Z,8.00
2019-03-30T07:52:50.775Z,8.20
2019-03-30T07:55:21.711Z,8.60
2019-03-30T07:57:52.712Z,8.70
2019-03-30T08:00:27.991Z,8.80
2019-03-30T08:02:56.511Z,8.90
2019-03-30T08:05:27.456Z,9.10
2019-03-30T08:07:58.418Z,9.20
2019-03-30T08:10:29.543Z,9.40
2019-03-30T08:13:00.555Z,9.60
2019-03-30T08:15:31.562Z,9.70
2019-03-30T08:18:02.532Z,9.80
2019-03-30T08:20:33.476Z,9.80
2019-03-30T08:23:04.446Z,9.90
2019-03-30T08:25:35.394Z,10.10
2019-03-30T08:28:06.371Z,10.20
2019-03-30T08:30:37.358Z,10.30
2019-03-30T08:33:08.308Z,10.40
2019-03-30T08:35:40.400Z,10.50
2019-03-30T08:38:11.351Z,10.60
2019-03-30T08:40:42.359Z,10.60
2019-03-30T08:43:15.148Z,10.70
2019-03-30T08:45:48.755Z,10.80
2019-03-30T08:48:18.803Z,11.00
2019-03-30T08:50:50.292Z,11.00
2019-03-30T08:53:21.344Z,11.10
2019-03-30T08:55:52.321Z,11.00
2019-03-30T08:58:23.287Z,11.10
2019-03-30T09:00:54.256Z,11.20
2019-03-30T09:03:25.210Z,11.10
2019-03-30T09:05:56.293Z,11.30
2019-03-30T09:08:27.237Z,11.70
2019-03-30T09:10:58.213Z,11.90
2019-03-30T09:13:29.169Z,12.00
2019-03-30T09:16:00.144Z,12.10
2019-03-30T09:18:31.120Z,12.30
2019-03-30T09:21:02.108Z,12.40
2019-03-30T09:23:33.134Z,12.60
2019-03-30T09:26:04.126Z,12.60
2019-03-30T09:28:35.110Z,12.60
2019-03-30T09:31:06.111Z,12.80
2019-03-30T09:33:37.108Z,12.90
2019-03-30T09:36:08.148Z,13.00
2019-03-30T09:38:40.314Z,13.10
2019-03-30T09:41:11.399Z,13.30
2019-03-30T09:43:44.123Z,13.20
2019-03-30T09:46:15.078Z,13.40
2019-03-30T09:48:46.084Z,13.50
2019-03-30T09:51:17.047Z,13.60
2019-03-30T09:53:48.064Z,13.80
2019-03-30T09:56:19.083Z,14.10
2019-03-30T09:58:50.049Z,14.20
2019-03-30T10:01:21.009Z,14.30
2019-03-30T10:03:51.985Z,14.60
2019-03-30T10:06:33.797Z,14.60
2019-03-30T10:08:55.686Z,14.80
2019-03-30T10:11:26.664Z,15.00
2019-03-30T10:13:57.656Z,16.50
2019-03-30T10:16:28.620Z,19.90
2019-03-30T10:18:59.597Z,23.00
2019-03-30T10:21:30.582Z,25.10
2019-03-30T10:24:01.571Z,27.50
2019-03-30T10:26:33.678Z,29.40
2019-03-30T10:29:04.656Z,30.40
2019-03-30T10:31:35.638Z,30.80
2019-03-30T10:34:06.602Z,31.20
2019-03-30T10:36:37.597Z,30.20
2019-03-30T10:39:09.547Z,30.20
2019-03-30T10:41:40.631Z,30.90
2019-03-30T10:44:11.738Z,31.70
2019-03-30T10:46:42.804Z,32.40
2019-03-30T10:49:13.760Z,30.40
2019-03-30T10:51:44.884Z,30.90
2019-03-30T10:54:15.821Z,32.00
2019-03-30T10:56:46.821Z,32.40
2019-03-30T10:59:17.779Z,33.30
2019-03-30T11:01:48.829Z,33.90
2019-03-30T11:04:19.993Z,33.70
2019-03-30T11:06:51.000Z,33.50
2019-03-30T11:09:21.982Z,31.20
2019-03-30T11:11:52.974Z,30.50
2019-03-30T11:14:23.958Z,30.70
2019-03-30T11:16:54.909Z,31.10
2019-03-30T11:19:25.899Z,31.30
2019-03-30T11:21:56.878Z,30.50
2019-03-30T11:24:27.908Z,30.50
2019-03-30T11:26:58.856Z,30.60
2019-03-30T11:29:29.842Z,31.10
2019-03-30T11:32:00.800Z,32.00
2019-03-30T11:34:31.783Z,32.70
2019-03-30T11:37:02.730Z,32.60
2019-03-30T11:39:33.732Z,33.00
2019-03-30T11:42:04.680Z,32.00
2019-03-30T11:44:36.215Z,31.10
2019-03-30T11:47:07.286Z,30.40
2019-03-30T11:49:38.458Z,31.00
2019-03-30T11:52:09.405Z,31.70
2019-03-30T11:54:40.465Z,31.60
2019-03-30T11:57:12.463Z,31.80
2019-03-30T11:59:44.391Z,31.90
2019-03-30T12:02:27.294Z,31.90
2019-03-30T12:04:48.052Z,31.60
2019-03-30T12:07:19.043Z,30.80
2019-03-30T12:09:49.998Z,29.70
2019-03-30T12:12:20.994Z,30.20
2019-03-30T12:14:51.968Z,30.60
2019-03-30T12:17:23.957Z,30.60
2019-03-30T12:19:54.912Z,31.60
2019-03-30T12:22:25.883Z,31.90
2019-03-30T12:24:56.910Z,31.30
2019-03-30T12:27:27.894Z,30.80
2019-03-30T12:29:58.851Z,31.50
2019-03-30T12:32:29.839Z,32.00
2019-03-30T12:35:01.800Z,33.00
2019-03-30T12:37:32.790Z,33.40
2019-03-30T12:40:03.943Z,33.00
2019-03-30T12:42:34.920Z,33.40
2019-03-30T12:45:07.887Z,32.60
2019-03-30T12:47:38.887Z,32.70
2019-03-30T12:50:10.867Z,32.70
2019-03-30T12:52:41.820Z,32.50
2019-03-30T12:55:12.900Z,31.70
2019-03-30T12:57:43.863Z,32.00
2019-03-30T13:00:15.450Z,31.80
2019-03-30T13:02:46.404Z,31.60
2019-03-30T13:05:17.379Z,31.60
2019-03-30T13:07:48.330Z,31.60
2019-03-30T13:10:19.608Z,30.80
2019-03-30T13:12:50.562Z,30.30
2019-03-30T13:15:21.551Z,31.40
2019-03-30T13:17:52.575Z,32.60
2019-03-30T13:20:23.556Z,33.30
2019-03-30T13:22:54.508Z,33.20
2019-03-30T13:25:25.588Z,34.00
2019-03-30T13:27:56.641Z,34.10
2019-03-30T13:30:28.736Z,33.90
2019-03-30T13:32:59.744Z,33.80
2019-03-30T13:35:30.725Z,34.10
2019-03-30T13:38:01.699Z,34.10
2019-03-30T13:40:32.689Z,33.70
2019-03-30T13:43:03.768Z,33.60
2019-03-30T13:45:34.741Z,33.80
2019-03-30T13:48:05.721Z,32.90
2019-03-30T13:50:36.688Z,32.50
2019-03-30T13:53:07.673Z,32.50
2019-03-30T13:55:38.643Z,33.40
2019-03-30T13:58:09.681Z,33.20
2019-03-30T14:00:40.637Z,33.20
2019-03-30T14:03:12.731Z,33.80
2019-03-30T14:05:43.695Z,34.00
2019-03-30T14:08:14.787Z,34.10
2019-03-30T14:10:45.743Z,34.80
2019-03-30T14:13:16.716Z,35.60
2019-03-30T14:15:47.666Z,35.50
2019-03-30T14:18:19.635Z,34.40
2019-03-30T14:20:50.610Z,33.90
2019-03-30T14:23:21.647Z,33.40
2019-03-30T14:25:52.701Z,33.80
2019-03-30T14:28:23.712Z,34.40
2019-03-30T14:30:54.677Z,33.60
2019-03-30T14:33:25.680Z,32.90
2019-03-30T14:35:56.678Z,33.40
2019-03-30T14:38:27.681Z,33.20
2019-03-30T14:40:58.808Z,32.80
2019-03-30T14:43:29.874Z,32.90
2019-03-30T14:46:00.861Z,32.30
2019-03-30T14:48:31.856Z,33.00
2019-03-30T14:51:02.831Z,33.10
2019-03-30T14:53:33.784Z,32.20
2019-03-30T14:56:04.770Z,32.40
2019-03-30T14:58:35.799Z,32.10
2019-03-30T15:01:07.890Z,32.40
2019-03-30T15:03:38.857Z,31.80
2019-03-30T15:06:09.892Z,31.50
2019-03-30T15:08:40.860Z,32.10
2019-03-30T15:11:11.848Z,32.30
2019-03-30T15:13:44.312Z,32.20
2019-03-30T15:16:15.330Z,32.60
2019-03-30T15:18:46.318Z,32.70
2019-03-30T15:21:17.289Z,33.10
2019-03-30T15:23:48.245Z,33.40
2019-03-30T15:26:21.908Z,33.20
2019-03-30T15:28:51.890Z,32.60
2019-03-30T15:31:22.913Z,31.90
2019-03-30T15:33:53.867Z,32.10
2019-03-30T15:36:24.851Z,32.50
2019-03-30T15:38:55.806Z,33.10
2019-03-30T15:41:27.981Z,33.60
2019-03-30T15:43:59.037Z,33.30
2019-03-30T15:46:30.013Z,32.70
2019-03-30T15:49:00.993Z,32.10
2019-03-30T15:51:32.084Z,32.00
2019-03-30T15:54:03.116Z,31.40
2019-03-30T15:56:34.063Z,31.40
2019-03-30T15:59:05.439Z,31.20
2019-03-30T16:01:36.388Z,30.80
2019-03-30T16:04:07.376Z,30.50
2019-03-30T16:06:38.318Z,30.40
2019-03-30T16:09:09.390Z,29.80
2019-03-30T16:11:40.337Z,29.80
2019-03-30T16:14:11.313Z,30.00
2019-03-30T16:16:42.272Z,29.90
2019-03-30T16:19:13.254Z,29.30
2019-03-30T16:21:44.234Z,28.60
2019-03-30T16:24:15.234Z,28.70
2019-03-30T16:26:46.263Z,28.70
2019-03-30T16:29:17.442Z,28.10
2019-03-30T16:31:48.419Z,28.50
2019-03-30T16:34:20.053Z,28.30
2019-03-30T16:36:51.198Z,28.60
2019-03-30T16:39:22.181Z,28.50
2019-03-30T16:41:53.163Z,27.90
2019-03-30T16:44:24.124Z,27.60
2019-03-30T16:46:57.440Z,27.30
2019-03-30T16:49:27.751Z,27.10
2019-03-30T16:51:58.729Z,26.30
2019-03-30T16:54:29.682Z,25.90
2019-03-30T16:57:00.657Z,25.70
2019-03-30T16:59:31.635Z,25.40
2019-03-30T17:02:02.621Z,24.90
2019-03-30T17:04:33.614Z,24.30
2019-03-30T17:07:04.715Z,23.50
2019-03-30T17:09:35.787Z,22.50
2019-03-30T17:12:06.871Z,21.80
2019-03-30T17:14:37.919Z,20.90
2019-03-30T17:17:08.918Z,20.40
2019-03-30T17:19:40.953Z,19.90
2019-03-30T17:22:11.949Z,19.50
2019-03-30T17:24:42.896Z,19.00
2019-03-30T17:27:13.912Z,18.70
2019-03-30T17:29:44.926Z,18.40
2019-03-30T17:32:16.033Z,18.10
2019-03-30T17:34:48.075Z,17.90
2019-03-30T17:37:19.132Z,17.60
2019-03-30T17:39:50.074Z,17.30
2019-03-30T17:42:21.201Z,16.90
2019-03-30T17:44:52.152Z,16.60
2019-03-30T17:47:23.151Z,16.20
2019-03-30T17:49:55.654Z,16.00
2019-03-30T17:52:28.402Z,15.80
2019-03-30T17:54:59.364Z,15.70
2019-03-30T17:57:30.532Z,15.50
2019-03-30T18:00:01.560Z,15.20
2019-03-30T18:02:32.655Z,15.00
2019-03-30T18:05:03.619Z,14.80
2019-03-30T18:07:34.613Z,14.70
2019-03-30T18:10:08.104Z,14.40
2019-03-30T18:12:39.081Z,14.30
2019-03-30T18:15:11.040Z,14.00
2019-03-30T18:17:42.027Z,13.80
2019-03-30T18:20:13.684Z,13.60
2019-03-30T18:22:44.707Z,13.50
2019-03-30T18:25:15.755Z,13.30
2019-03-30T18:27:46.775Z,13.10
2019-03-30T18:30:21.063Z,12.90
2019-03-30T18:32:53.516Z,12.80
2019-03-30T18:35:24.630Z,12.60
2019-03-30T18:37:56.118Z,12.50
2019-03-30T18:40:34.234Z,12.30
2019-03-30T18:43:05.321Z,12.10
2019-03-30T18:45:37.728Z,11.80
2019-03-30T18:48:16.599Z,11.60
2019-03-30T18:50:48.155Z,11.60
2019-03-30T18:53:19.546Z,11.50
2019-03-30T18:55:50.491Z,11.20
2019-03-30T18:58:21.475Z,11.10
2019-03-30T19:00:52.526Z,11.10
2019-03-30T19:03:23.551Z,11.00
2019-03-30T19:05:54.497Z,10.90
2019-03-30T19:08:25.479Z,10.80
2019-03-30T19:10:56.426Z,10.70
2019-03-30T19:13:27.414Z,10.50
2019-03-30T19:15:58.365Z,10.40
2019-03-30T19:18:29.407Z,10.30
2019-03-30T19:21:00.353Z,10.20
2019-03-30T19:23:32.430Z,10.10
2019-03-30T19:26:03.383Z,10.00
2019-03-30T19:28:34.356Z,9.90
2019-03-30T19:31:05.507Z,9.80
2019-03-30T19:33:36.671Z,9.60
2019-03-30T19:36:10.073Z,9.40
2019-03-30T19:38:40.305Z,9.20
2019-03-30T19:41:11.240Z,9.20
2019-03-30T19:43:42.259Z,9.20
2019-03-30T19:46:13.239Z,9.20
2019-03-30T19:48:44.212Z,9.10
2019-03-30T19:51:15.580Z,9.00
2019-03-30T19:53:46.536Z,9.00
2019-03-30T19:56:17.572Z,8.90
2019-03-30T19:58:48.570Z,8.90
2019-03-30T20:01:19.565Z,8.80
2019-03-30T20:03:50.545Z,8.60
2019-03-30T20:06:22.083Z,8.60
2019-03-30T20:08:53.135Z,8.50
2019-03-30T20:11:31.367Z,8.50
2019-03-30T20:13:59.511Z,8.40
2019-03-30T20:16:30.460Z,8.30
2019-03-30T20:19:12.152Z,8.20
2019-03-30T20:21:34.195Z,8.10
2019-03-30T20:24:05.336Z,8.10
2019-03-30T20:26:36.354Z,8.10
2019-03-30T20:29:07.327Z,8.00
2019-03-30T20:31:38.274Z,7.70
2019-03-30T20:34:09.264Z,7.60
2019-03-30T20:36:40.268Z,7.50
2019-03-30T20:39:11.537Z,7.30
2019-03-30T20:41:45.001Z,7.20
2019-03-30T20:44:17.651Z,7.10
2019-03-30T20:46:48.596Z,7.10
2019-03-30T20:49:20.652Z,7.00
2019-03-30T20:51:51.994Z,7.00
2019-03-30T20:54:22.967Z,7.00
2019-03-30T20:56:53.977Z,7.00
2019-03-30T20:59:39.013Z,7.00
2019-03-30T21:01:57.637Z,7.00
2019-03-30T21:04:28.647Z,6.90
2019-03-30T21:06:59.593Z,7.00
2019-03-30T21:09:30.568Z,7.00
2019-03-30T21:12:01.560Z,7.00
2019-03-30T21:14:32.531Z,6.90
2019-03-30T21:17:03.471Z,6.90
2019-03-30T21:19:34.448Z,6.80
2019-03-30T21:22:05.471Z,6.80
2019-03-30T21:24:37.732Z,6.90
2019-03-30T21:27:08.869Z,7.10
2019-03-30T21:29:48.501Z,6.90
2019-03-30T21:32:12.650Z,6.70
2019-03-30T21:34:43.810Z,6.50
2019-03-30T21:37:14.782Z,6.20
2019-03-30T21:39:45.844Z,6.10
2019-03-30T21:42:16.787Z,5.90
2019-03-30T21:44:47.774Z,5.70
2019-03-30T21:47:18.776Z,5.50
2019-03-30T21:49:49.949Z,5.50
2019-03-30T21:52:20.913Z,5.60
2019-03-30T21:54:52.237Z,5.70
2019-03-30T21:57:23.523Z,5.70
2019-03-30T22:00:08.699Z,5.80
2019-03-30T22:02:27.550Z,6.00
2019-03-30T22:04:58.522Z,6.10
2019-03-30T22:07:29.583Z,6.10
2019-03-30T22:10:00.803Z,6.10
2019-03-30T22:12:31.733Z,5.90
2019-03-30T22:15:03.014Z,5.80
2019-03-30T22:17:33.959Z,5.90
2019-03-30T22:20:07.134Z,5.60
2019-03-30T22:22:38.148Z,5.40
2019-03-30T22:25:09.204Z,5.50
2019-03-30T22:27:41.165Z,5.60
2019-03-30T22:30:24.034Z,5.70
2019-03-30T22:32:44.991Z,5.70
2019-03-30T22:35:15.964Z,5.50
2019-03-30T22:37:46.978Z,5.30
2019-03-30T22:40:21.297Z,5.10
2019-03-30T22:42:52.290Z,4.90
2019-03-30T22:45:26.161Z,4.70
2019-03-30T22:47:57.108Z,4.50
2019-03-30T22:50:28.076Z,4.40
2019-03-30T22:52:59.022Z,4.50
2019-03-30T22:55:29.990Z,4.40
2019-03-30T22:58:00.941Z,4.30
2019-03-30T23:00:40.537Z,4.10
2019-03-30T23:03:13.237Z,3.90
2019-03-30T23:05:44.218Z,4.10
2019-03-30T23:08:15.149Z,4.30
2019-03-30T23:10:46.161Z,4.40
2019-03-30T23:13:17.103Z,4.70
2019-03-30T23:15:48.057Z,4.70
2019-03-30T23:18:19.088Z,4.60
2019-03-30T23:20:50.070Z,4.60
2019-03-30T23:23:21.137Z,4.60
2019-03-30T23:25:52.104Z,4.60
2019-03-30T23:28:23.047Z,4.40
2019-03-30T23:30:54.879Z,4.20
2019-03-30T23:33:26.000Z,4.00
2019-03-30T23:35:57.105Z,3.80
2019-03-30T23:38:28.165Z,3.70
2019-03-30T23:40:59.245Z,3.60
2019-03-30T23:43:30.247Z,3.70
2019-03-30T23:46:01.215Z,3.60
2019-03-30T23:48:32.176Z,3.50
2019-03-30T23:51:03.191Z,3.40
2019-03-30T23:53:34.137Z,3.30
2019-03-30T23:56:08.496Z,3.30
2019-03-30T23:58:39.659Z,3.30
